sensor_id;sensor_type;location;lat;lon;timestamp;P1;durP1;ratioP1;P2;durP2;ratioP2
30458;SDS011;17254;50.976;7.034;2023-04-25T00:00:00;12.30;;;7.30;;
30458;SDS011;17254;50.976;7.034;2023-04-25T00:00:06;12.50;;;7.47;;
30458;SDS011;17254;50.976;7.034;2023-04-25T00:00:17;12.47;;;7.57;;
30458;SDS011;17254;50.976;7.034;2023-04-25T00:00:25;13.65;;;7.67;;
30458;SDS011;17254;50.976;7.034;2023-04-25T00:00:31;15.18;;;7.85;;
30458;SDS011;17254;50.976;7.034;2023-04-25T00:00:37;15.68;;;8.05;;
30458;SDS011;17254;50.976;7.034;2023-04-25T00:00:43;16.60;;;8.03;;
30458;SDS011;17254;50.976;7.034;2023-04-25T00:00:49;16.50;;;7.93;;
30458;SDS011;17254;50.976;7.034;2023-04-25T00:00:57;14.75;;;8.00;;
30458;SDS011;17254;50.976;7.034;2023-04-25T00:01:03;13.80;;;7.93;;
30458;SDS011;17254;50.976;7.034;2023-04-25T00:01:09;12.80;;;7.67;;
30458;SDS011;17254;50.976;7.034;2023-04-25T00:01:18;11.80;;;7.73;;
30458;SDS011;17254;50.976;7.034;2023-04-25T00:01:23;12.68;;;7.57;;
30458;SDS011;17254;50.976;7.034;2023-04-25T00:01:29;12.77;;;7.47;;
30458;SDS011;17254;50.976;7.034;2023-04-25T00:01:37;13.10;;;7.32;;
30458;SDS011;17254;50.976;7.034;2023-04-25T00:01:43;13.55;;;7.15;;
30458;SDS011;17254;50.976;7.034;2023-04-25T00:01:49;14.00;;;7.10;;
30458;SDS011;17254;50.976;7.034;2023-04-25T00:01:56;12.47;;;7.23;;
30458;SDS011;17254;50.976;7.034;2023-04-25T00:02:02;13.87;;;7.47;;
30458;SDS011;17254;50.976;7.034;2023-04-25T00:02:08;13.68;;;7.35;;
30458;SDS011;17254;50.976;7.034;2023-04-25T00:02:14;13.48;;;7.20;;
30458;SDS011;17254;50.976;7.034;2023-04-25T00:02:20;13.27;;;7.00;;
30458;SDS011;17254;50.976;7.034;2023-04-25T00:02:27;14.27;;;7.10;;
30458;SDS011;17254;50.976;7.034;2023-04-25T00:02:33;13.05;;;6.97;;
30458;SDS011;17254;50.976;7.034;2023-04-25T00:02:39;12.00;;;7.08;;
30458;SDS011;17254;50.976;7.034;2023-04-25T00:02:46;12.60;;;7.47;;
30458;SDS011;17254;50.976;7.034;2023-04-25T00:02:52;13.23;;;7.45;;
30458;SDS011;17254;50.976;7.034;2023-04-25T00:02:58;13.75;;;7.30;;
30458;SDS011;17254;50.976;7.034;2023-04-25T00:03:05;14.48;;;7.52;;
30458;SDS011;17254;50.976;7.034;2023-04-25T00:03:11;15.15;;;7.50;;
30458;SDS011;17254;50.976;7.034;2023-04-25T00:03:17;14.38;;;7.28;;
30458;SDS011;17254;50.976;7.034;2023-04-25T00:03:23;14.18;;;7.32;;
30458;SDS011;17254;50.976;7.034;2023-04-25T00:03:30;12.87;;;7.23;;
30458;SDS011;17254;50.976;7.034;2023-04-25T00:03:36;12.50;;;7.47;;
30458;SDS011;17254;50.976;7.034;2023-04-25T00:03:44;13.00;;;7.68;;
30458;SDS011;17254;50.976;7.034;2023-04-25T00:03:50;13.32;;;7.88;;
30458;SDS011;17254;50.976;7.034;2023-04-25T00:03:56;13.45;;;7.95;;
30458;SDS011;17254;50.976;7.034;2023-04-25T00:04:02;14.27;;;7.95;;
30458;SDS011;17254;50.976;7.034;2023-04-25T00:04:08;14.57;;;7.90;;
30458;SDS011;17254;50.976;7.034;2023-04-25T00:04:14;15.02;;;7.88;;
30458;SDS011;17254;50.976;7.034;2023-04-25T00:04:20;15.97;;;7.97;;
30458;SDS011;17254;50.976;7.034;2023-04-25T00:04:27;14.97;;;7.70;;
30458;SDS011;17254;50.976;7.034;2023-04-25T00:04:34;14.33;;;7.47;;
30458;SDS011;17254;50.976;7.034;2023-04-25T00:04:42;13.44;;;7.20;;
30458;SDS011;17254;50.976;7.034;2023-04-25T00:04:48;12.27;;;7.10;;
30458;SDS011;17254;50.976;7.034;2023-04-25T00:04:54;11.60;;;7.10;;
30458;SDS011;17254;50.976;7.034;2023-04-25T00:05:03;12.33;;;7.43;;
30458;SDS011;17254;50.976;7.034;2023-04-25T00:05:09;13.23;;;7.70;;
30458;SDS011;17254;50.976;7.034;2023-04-25T00:05:15;14.07;;;7.93;;
30458;SDS011;17254;50.976;7.034;2023-04-25T00:05:22;15.80;;;8.25;;
30458;SDS011;17254;50.976;7.034;2023-04-25T00:05:28;16.42;;;8.48;;
30458;SDS011;17254;50.976;7.034;2023-04-25T00:05:34;15.70;;;8.27;;
30458;SDS011;17254;50.976;7.034;2023-04-25T00:05:42;14.10;;;8.18;;
30458;SDS011;17254;50.976;7.034;2023-04-25T00:05:49;12.12;;;7.80;;
30458;SDS011;17254;50.976;7.034;2023-04-25T00:05:56;10.67;;;7.52;;
30458;SDS011;17254;50.976;7.034;2023-04-25T00:06:03;10.25;;;7.68;;
30458;SDS011;17254;50.976;7.034;2023-04-25T00:06:09;10.50;;;7.63;;
30458;SDS011;17254;50.976;7.034;2023-04-25T00:06:14;11.07;;;7.60;;
30458;SDS011;17254;50.976;7.034;2023-04-25T00:06:20;12.75;;;7.53;;
30458;SDS011;17254;50.976;7.034;2023-04-25T00:06:26;13.82;;;7.72;;
30458;SDS011;17254;50.976;7.034;2023-04-25T00:06:32;14.57;;;7.93;;
30458;SDS011;17254;50.976;7.034;2023-04-25T00:06:41;14.89;;;7.94;;
30458;SDS011;17254;50.976;7.034;2023-04-25T00:06:47;15.70;;;8.15;;
30458;SDS011;17254;50.976;7.034;2023-04-25T00:06:53;14.95;;;8.13;;
30458;SDS011;17254;50.976;7.034;2023-04-25T00:06:59;14.27;;;7.83;;
30458;SDS011;17254;50.976;7.034;2023-04-25T00:07:06;14.23;;;7.80;;
30458;SDS011;17254;50.976;7.034;2023-04-25T00:07:12;14.70;;;7.70;;
30458;SDS011;17254;50.976;7.034;2023-04-25T00:07:19;13.53;;;7.33;;
30458;SDS011;17254;50.976;7.034;2023-04-25T00:07:25;13.93;;;7.63;;
30458;SDS011;17254;50.976;7.034;2023-04-25T00:07:31;14.10;;;7.67;;
30458;SDS011;17254;50.976;7.034;2023-04-25T00:07:37;19.83;;;8.20;;
30458;SDS011;17254;50.976;7.034;2023-04-25T00:07:43;19.12;;;8.10;;
30458;SDS011;17254;50.976;7.034;2023-04-25T00:07:49;18.43;;;8.17;;
30458;SDS011;17254;50.976;7.034;2023-04-25T00:07:55;18.67;;;8.20;;
30458;SDS011;17254;50.976;7.034;2023-04-25T00:08:02;19.43;;;8.23;;
30458;SDS011;17254;50.976;7.034;2023-04-25T00:08:09;14.68;;;7.68;;
30458;SDS011;17254;50.976;7.034;2023-04-25T00:08:14;16.60;;;7.82;;
30458;SDS011;17254;50.976;7.034;2023-04-25T00:08:22;16.90;;;7.90;;
30458;SDS011;17254;50.976;7.034;2023-04-25T00:08:28;16.34;;;7.96;;
30458;SDS011;17254;50.976;7.034;2023-04-25T00:08:34;15.07;;;7.50;;
30458;SDS011;17254;50.976;7.034;2023-04-25T00:08:41;13.48;;;7.66;;
30458;SDS011;17254;50.976;7.034;2023-04-25T00:08:47;11.43;;;7.60;;
30458;SDS011;17254;50.976;7.034;2023-04-25T00:08:53;12.00;;;7.50;;
30458;SDS011;17254;50.976;7.034;2023-04-25T00:09:00;12.72;;;7.46;;
30458;SDS011;17254;50.976;7.034;2023-04-25T00:09:06;13.18;;;7.82;;
30458;SDS011;17254;50.976;7.034;2023-04-25T00:09:13;13.24;;;7.76;;
30458;SDS011;17254;50.976;7.034;2023-04-25T00:09:20;14.60;;;8.10;;
30458;SDS011;17254;50.976;7.034;2023-04-25T00:09:26;13.65;;;7.95;;
30458;SDS011;17254;50.976;7.034;2023-04-25T00:09:32;12.84;;;7.62;;
30458;SDS011;17254;50.976;7.034;2023-04-25T00:09:38;12.43;;;7.47;;
30458;SDS011;17254;50.976;7.034;2023-04-25T00:09:44;12.68;;;7.43;;
30458;SDS011;17254;50.976;7.034;2023-04-25T00:09:50;11.75;;;7.07;;
30458;SDS011;17254;50.976;7.034;2023-04-25T00:09:56;12.63;;;7.33;;
30458;SDS011;17254;50.976;7.034;2023-04-25T00:10:02;13.65;;;7.90;;
30458;SDS011;17254;50.976;7.034;2023-04-25T00:10:10;14.25;;;8.02;;
30458;SDS011;17254;50.976;7.034;2023-04-25T00:10:16;14.23;;;8.17;;
30458;SDS011;17254;50.976;7.034;2023-04-25T00:10:24;13.87;;;8.15;;
30458;SDS011;17254;50.976;7.034;2023-04-25T00:10:30;14.63;;;8.18;;
30458;SDS011;17254;50.976;7.034;2023-04-25T00:10:36;14.02;;;8.18;;
30458;SDS011;17254;50.976;7.034;2023-04-25T00:10:42;13.53;;;8.10;;
30458;SDS011;17254;50.976;7.034;2023-04-25T00:10:48;12.98;;;7.90;;
30458;SDS011;17254;50.976;7.034;2023-04-25T00:10:54;13.13;;;8.10;;
30458;SDS011;17254;50.976;7.034;2023-04-25T00:11:00;11.93;;;7.65;;
30458;SDS011;17254;50.976;7.034;2023-04-25T00:11:06;11.67;;;7.43;;
30458;SDS011;17254;50.976;7.034;2023-04-25T00:11:12;11.85;;;7.50;;
30458;SDS011;17254;50.976;7.034;2023-04-25T00:11:18;12.65;;;7.60;;
30458;SDS011;17254;50.976;7.034;2023-04-25T00:11:24;16.98;;;7.70;;
30458;SDS011;17254;50.976;7.034;2023-04-25T00:11:29;16.95;;;7.97;;
30458;SDS011;17254;50.976;7.034;2023-04-25T00:11:36;18.30;;;8.00;;
30458;SDS011;17254;50.976;7.034;2023-04-25T00:11:43;17.78;;;7.92;;
30458;SDS011;17254;50.976;7.034;2023-04-25T00:11:49;16.60;;;8.30;;
30458;SDS011;17254;50.976;7.034;2023-04-25T00:11:55;13.93;;;8.13;;
30458;SDS011;17254;50.976;7.034;2023-04-25T00:12:01;15.18;;;8.15;;
30458;SDS011;17254;50.976;7.034;2023-04-25T00:12:07;15.63;;;8.13;;
30458;SDS011;17254;50.976;7.034;2023-04-25T00:12:13;16.55;;;8.40;;
30458;SDS011;17254;50.976;7.034;2023-04-25T00:12:19;16.50;;;7.97;;
30458;SDS011;17254;50.976;7.034;2023-04-25T00:12:25;15.90;;;7.60;;
30458;SDS011;17254;50.976;7.034;2023-04-25T00:12:33;15.17;;;7.60;;
30458;SDS011;17254;50.976;7.034;2023-04-25T00:12:39;14.43;;;7.65;;
30458;SDS011;17254;50.976;7.034;2023-04-25T00:12:46;13.68;;;7.34;;
30458;SDS011;17254;50.976;7.034;2023-04-25T00:12:52;13.52;;;7.63;;
30458;SDS011;17254;50.976;7.034;2023-04-25T00:12:59;13.03;;;7.77;;
30458;SDS011;17254;50.976;7.034;2023-04-25T00:13:07;11.77;;;7.30;;
30458;SDS011;17254;50.976;7.034;2023-04-25T00:13:13;12.05;;;7.55;;
30458;SDS011;17254;50.976;7.034;2023-04-25T00:13:19;11.98;;;7.48;;
30458;SDS011;17254;50.976;7.034;2023-04-25T00:13:26;11.57;;;7.50;;
30458;SDS011;17254;50.976;7.034;2023-04-25T00:13:32;11.75;;;7.60;;
30458;SDS011;17254;50.976;7.034;2023-04-25T00:13:39;12.85;;;8.13;;
30458;SDS011;17254;50.976;7.034;2023-04-25T00:13:46;13.40;;;8.10;;
30458;SDS011;17254;50.976;7.034;2023-04-25T00:13:53;15.03;;;8.30;;
30458;SDS011;17254;50.976;7.034;2023-04-25T00:13:59;15.90;;;8.25;;
30458;SDS011;17254;50.976;7.034;2023-04-25T00:14:07;15.93;;;7.97;;
30458;SDS011;17254;50.976;7.034;2023-04-25T00:14:13;16.80;;;7.80;;
30458;SDS011;17254;50.976;7.034;2023-04-25T00:14:19;16.45;;;7.40;;
30458;SDS011;17254;50.976;7.034;2023-04-25T00:14:26;16.58;;;7.34;;
30458;SDS011;17254;50.976;7.034;2023-04-25T00:14:32;16.80;;;7.40;;
30458;SDS011;17254;50.976;7.034;2023-04-25T00:14:39;16.63;;;7.60;;
30458;SDS011;17254;50.976;7.034;2023-04-25T00:14:45;15.65;;;7.57;;
30458;SDS011;17254;50.976;7.034;2023-04-25T00:14:51;14.86;;;7.90;;
30458;SDS011;17254;50.976;7.034;2023-04-25T00:14:57;14.88;;;8.10;;
30458;SDS011;17254;50.976;7.034;2023-04-25T00:15:05;14.54;;;8.18;;
30458;SDS011;17254;50.976;7.034;2023-04-25T00:15:12;15.12;;;8.08;;
30458;SDS011;17254;50.976;7.034;2023-04-25T00:15:18;15.57;;;8.10;;
30458;SDS011;17254;50.976;7.034;2023-04-25T00:15:24;15.55;;;8.00;;
30458;SDS011;17254;50.976;7.034;2023-04-25T00:15:30;15.27;;;7.88;;
30458;SDS011;17254;50.976;7.034;2023-04-25T00:15:36;15.38;;;7.80;;
30458;SDS011;17254;50.976;7.034;2023-04-25T00:15:43;14.92;;;7.78;;
30458;SDS011;17254;50.976;7.034;2023-04-25T00:15:49;14.80;;;7.50;;
30458;SDS011;17254;50.976;7.034;2023-04-25T00:15:55;13.75;;;7.10;;
30458;SDS011;17254;50.976;7.034;2023-04-25T00:16:03;11.70;;;6.77;;
30458;SDS011;17254;50.976;7.034;2023-04-25T00:16:09;10.47;;;6.63;;
30458;SDS011;17254;50.976;7.034;2023-04-25T00:16:15;9.73;;;6.70;;
30458;SDS011;17254;50.976;7.034;2023-04-25T00:16:21;9.63;;;7.10;;
30458;SDS011;17254;50.976;7.034;2023-04-25T00:16:28;9.90;;;7.24;;
30458;SDS011;17254;50.976;7.034;2023-04-25T00:16:38;10.99;;;7.19;;
30458;SDS011;17254;50.976;7.034;2023-04-25T00:16:46;11.48;;;7.17;;
30458;SDS011;17254;50.976;7.034;2023-04-25T00:16:52;11.95;;;6.85;;
30458;SDS011;17254;50.976;7.034;2023-04-25T00:16:58;13.43;;;7.13;;
30458;SDS011;17254;50.976;7.034;2023-04-25T00:17:04;13.57;;;7.33;;
30458;SDS011;17254;50.976;7.034;2023-04-25T00:17:10;13.27;;;7.70;;
30458;SDS011;17254;50.976;7.034;2023-04-25T00:17:16;13.07;;;7.87;;
30458;SDS011;17254;50.976;7.034;2023-04-25T00:17:24;12.82;;;7.85;;
30458;SDS011;17254;50.976;7.034;2023-04-25T00:17:30;11.75;;;7.82;;
30458;SDS011;17254;50.976;7.034;2023-04-25T00:17:36;12.07;;;7.93;;
30458;SDS011;17254;50.976;7.034;2023-04-25T00:17:43;12.66;;;7.72;;
30458;SDS011;17254;50.976;7.034;2023-04-25T00:17:50;14.38;;;7.80;;
30458;SDS011;17254;50.976;7.034;2023-04-25T00:17:57;14.63;;;7.83;;
30458;SDS011;17254;50.976;7.034;2023-04-25T00:18:03;15.25;;;7.93;;
30458;SDS011;17254;50.976;7.034;2023-04-25T00:18:10;16.08;;;7.86;;
30458;SDS011;17254;50.976;7.034;2023-04-25T00:18:16;15.13;;;7.82;;
30458;SDS011;17254;50.976;7.034;2023-04-25T00:18:23;15.10;;;8.50;;
30458;SDS011;17254;50.976;7.034;2023-04-25T00:18:29;15.65;;;8.60;;
30458;SDS011;17254;50.976;7.034;2023-04-25T00:18:35;15.15;;;8.43;;
30458;SDS011;17254;50.976;7.034;2023-04-25T00:18:42;13.68;;;8.48;;
30458;SDS011;17254;50.976;7.034;2023-04-25T00:18:48;12.63;;;8.20;;
30458;SDS011;17254;50.976;7.034;2023-04-25T00:18:56;12.65;;;7.63;;
30458;SDS011;17254;50.976;7.034;2023-04-25T00:19:03;12.37;;;7.57;;
30458;SDS011;17254;50.976;7.034;2023-04-25T00:19:09;12.52;;;7.47;;
30458;SDS011;17254;50.976;7.034;2023-04-25T00:19:15;13.15;;;7.68;;
30458;SDS011;17254;50.976;7.034;2023-04-25T00:19:21;13.23;;;7.80;;
30458;SDS011;17254;50.976;7.034;2023-04-25T00:19:27;12.95;;;7.90;;
30458;SDS011;17254;50.976;7.034;2023-04-25T00:19:33;13.75;;;7.85;;
30458;SDS011;17254;50.976;7.034;2023-04-25T00:19:39;14.30;;;7.97;;
30458;SDS011;17254;50.976;7.034;2023-04-25T00:19:45;14.00;;;7.82;;
30458;SDS011;17254;50.976;7.034;2023-04-25T00:19:52;13.58;;;7.66;;
30458;SDS011;17254;50.976;7.034;2023-04-25T00:19:58;13.00;;;7.67;;
30458;SDS011;17254;50.976;7.034;2023-04-25T00:20:04;12.00;;;7.70;;
30458;SDS011;17254;50.976;7.034;2023-04-25T00:20:14;11.13;;;7.64;;
30458;SDS011;17254;50.976;7.034;2023-04-25T00:20:20;12.80;;;7.93;;
30458;SDS011;17254;50.976;7.034;2023-04-25T00:20:28;13.24;;;7.92;;
30458;SDS011;17254;50.976;7.034;2023-04-25T00:20:35;13.83;;;8.07;;
30458;SDS011;17254;50.976;7.034;2023-04-25T00:20:41;15.35;;;8.00;;
30458;SDS011;17254;50.976;7.034;2023-04-25T00:20:51;15.32;;;7.97;;
30458;SDS011;17254;50.976;7.034;2023-04-25T00:20:57;15.25;;;7.88;;
30458;SDS011;17254;50.976;7.034;2023-04-25T00:21:03;15.20;;;8.00;;
30458;SDS011;17254;50.976;7.034;2023-04-25T00:21:11;15.08;;;8.33;;
30458;SDS011;17254;50.976;7.034;2023-04-25T00:21:17;14.13;;;8.35;;
30458;SDS011;17254;50.976;7.034;2023-04-25T00:21:23;14.73;;;8.63;;
30458;SDS011;17254;50.976;7.034;2023-04-25T00:21:30;14.72;;;8.54;;
30458;SDS011;17254;50.976;7.034;2023-04-25T00:21:36;14.93;;;8.50;;
30458;SDS011;17254;50.976;7.034;2023-04-25T00:21:45;15.40;;;8.43;;
30458;SDS011;17254;50.976;7.034;2023-04-25T00:21:51;15.07;;;8.55;;
30458;SDS011;17254;50.976;7.034;2023-04-25T00:21:57;15.02;;;8.35;;
30458;SDS011;17254;50.976;7.034;2023-04-25T00:22:03;14.27;;;7.95;;
30458;SDS011;17254;50.976;7.034;2023-04-25T00:22:10;14.12;;;7.82;;
30458;SDS011;17254;50.976;7.034;2023-04-25T00:22:17;14.62;;;7.72;;
30458;SDS011;17254;50.976;7.034;2023-04-25T00:22:23;14.53;;;7.73;;
30458;SDS011;17254;50.976;7.034;2023-04-25T00:22:29;14.63;;;7.97;;
30458;SDS011;17254;50.976;7.034;2023-04-25T00:22:35;14.75;;;8.10;;
30458;SDS011;17254;50.976;7.034;2023-04-25T00:22:42;14.24;;;8.16;;
30458;SDS011;17254;50.976;7.034;2023-04-25T00:22:49;12.66;;;8.10;;
30458;SDS011;17254;50.976;7.034;2023-04-25T00:22:56;12.82;;;7.97;;
30458;SDS011;17254;50.976;7.034;2023-04-25T00:23:01;12.98;;;8.07;;
30458;SDS011;17254;50.976;7.034;2023-04-25T00:23:07;12.82;;;7.97;;
30458;SDS011;17254;50.976;7.034;2023-04-25T00:23:13;12.55;;;7.88;;
30458;SDS011;17254;50.976;7.034;2023-04-25T00:23:24;12.73;;;7.93;;
30458;SDS011;17254;50.976;7.034;2023-04-25T00:23:30;11.76;;;7.96;;
30458;SDS011;17254;50.976;7.034;2023-04-25T00:23:36;12.25;;;8.20;;
30458;SDS011;17254;50.976;7.034;2023-04-25T00:23:42;12.57;;;8.37;;
30458;SDS011;17254;50.976;7.034;2023-04-25T00:23:47;13.35;;;8.38;;
30458;SDS011;17254;50.976;7.034;2023-04-25T00:23:54;13.65;;;8.25;;
30458;SDS011;17254;50.976;7.034;2023-04-25T00:24:00;14.43;;;8.40;;
30458;SDS011;17254;50.976;7.034;2023-04-25T00:24:06;15.32;;;8.38;;
30458;SDS011;17254;50.976;7.034;2023-04-25T00:24:12;16.87;;;8.33;;
30458;SDS011;17254;50.976;7.034;2023-04-25T00:24:19;17.33;;;8.27;;
30458;SDS011;17254;50.976;7.034;2023-04-25T00:24:25;17.22;;;8.18;;
30458;SDS011;17254;50.976;7.034;2023-04-25T00:24:31;17.80;;;7.88;;
30458;SDS011;17254;50.976;7.034;2023-04-25T00:24:37;16.33;;;7.57;;
30458;SDS011;17254;50.976;7.034;2023-04-25T00:24:43;14.95;;;7.47;;
30458;SDS011;17254;50.976;7.034;2023-04-25T00:24:49;14.63;;;7.63;;
30458;SDS011;17254;50.976;7.034;2023-04-25T00:24:55;14.35;;;7.68;;
30458;SDS011;17254;50.976;7.034;2023-04-25T00:25:02;13.76;;;7.76;;
30458;SDS011;17254;50.976;7.034;2023-04-25T00:25:09;14.40;;;8.05;;
30458;SDS011;17254;50.976;7.034;2023-04-25T00:25:15;14.75;;;8.10;;
30458;SDS011;17254;50.976;7.034;2023-04-25T00:25:21;15.63;;;8.20;;
30458;SDS011;17254;50.976;7.034;2023-04-25T00:25:27;16.45;;;8.50;;
30458;SDS011;17254;50.976;7.034;2023-04-25T00:25:32;16.30;;;8.50;;
30458;SDS011;17254;50.976;7.034;2023-04-25T00:25:38;15.30;;;8.48;;
30458;SDS011;17254;50.976;7.034;2023-04-25T00:25:44;15.63;;;8.67;;
30458;SDS011;17254;50.976;7.034;2023-04-25T00:25:50;15.10;;;8.70;;
30458;SDS011;17254;50.976;7.034;2023-04-25T00:25:57;14.70;;;8.36;;
30458;SDS011;17254;50.976;7.034;2023-04-25T00:26:03;15.70;;;8.13;;
30458;SDS011;17254;50.976;7.034;2023-04-25T00:26:09;16.77;;;7.90;;
30458;SDS011;17254;50.976;7.034;2023-04-25T00:26:15;16.10;;;7.60;;
30458;SDS011;17254;50.976;7.034;2023-04-25T00:26:21;15.30;;;7.45;;
30458;SDS011;17254;50.976;7.034;2023-04-25T00:26:27;14.32;;;7.32;;
30458;SDS011;17254;50.976;7.034;2023-04-25T00:26:33;13.35;;;7.60;;
30458;SDS011;17254;50.976;7.034;2023-04-25T00:26:40;13.10;;;7.70;;
30458;SDS011;17254;50.976;7.034;2023-04-25T00:26:46;12.68;;;7.65;;
30458;SDS011;17254;50.976;7.034;2023-04-25T00:26:51;12.70;;;7.78;;
30458;SDS011;17254;50.976;7.034;2023-04-25T00:26:57;13.02;;;8.07;;
30458;SDS011;17254;50.976;7.034;2023-04-25T00:27:03;14.35;;;8.00;;
30458;SDS011;17254;50.976;7.034;2023-04-25T00:27:09;14.23;;;8.03;;
30458;SDS011;17254;50.976;7.034;2023-04-25T00:27:16;14.10;;;8.04;;
30458;SDS011;17254;50.976;7.034;2023-04-25T00:27:22;14.95;;;8.30;;
30458;SDS011;17254;50.976;7.034;2023-04-25T00:27:27;15.55;;;8.52;;
30458;SDS011;17254;50.976;7.034;2023-04-25T00:27:33;14.43;;;8.50;;
30458;SDS011;17254;50.976;7.034;2023-04-25T00:27:39;13.53;;;8.30;;
30458;SDS011;17254;50.976;7.034;2023-04-25T00:27:46;14.07;;;8.30;;
30458;SDS011;17254;50.976;7.034;2023-04-25T00:27:52;20.23;;;8.45;;
30458;SDS011;17254;50.976;7.034;2023-04-25T00:27:58;21.77;;;8.27;;
30458;SDS011;17254;50.976;7.034;2023-04-25T00:28:04;21.20;;;8.02;;
30458;SDS011;17254;50.976;7.034;2023-04-25T00:28:10;21.73;;;8.23;;
30458;SDS011;17254;50.976;7.034;2023-04-25T00:28:16;22.10;;;8.40;;
30458;SDS011;17254;50.976;7.034;2023-04-25T00:28:22;15.02;;;7.88;;
30458;SDS011;17254;50.976;7.034;2023-04-25T00:28:28;13.10;;;7.78;;
30458;SDS011;17254;50.976;7.034;2023-04-25T00:28:35;14.47;;;8.10;;
30458;SDS011;17254;50.976;7.034;2023-04-25T00:28:41;17.03;;;8.03;;
30458;SDS011;17254;50.976;7.034;2023-04-25T00:28:47;17.15;;;8.02;;
30458;SDS011;17254;50.976;7.034;2023-04-25T00:28:53;17.50;;;8.02;;
30458;SDS011;17254;50.976;7.034;2023-04-25T00:28:59;16.50;;;8.15;;
30458;SDS011;17254;50.976;7.034;2023-04-25T00:29:05;16.52;;;8.05;;
30458;SDS011;17254;50.976;7.034;2023-04-25T00:29:10;14.25;;;8.07;;
30458;SDS011;17254;50.976;7.034;2023-04-25T00:29:17;13.73;;;8.00;;
30458;SDS011;17254;50.976;7.034;2023-04-25T00:29:23;13.30;;;8.05;;
30458;SDS011;17254;50.976;7.034;2023-04-25T00:29:29;13.73;;;7.90;;
30458;SDS011;17254;50.976;7.034;2023-04-25T00:29:35;13.68;;;8.13;;
30458;SDS011;17254;50.976;7.034;2023-04-25T00:29:42;14.78;;;8.32;;
30458;SDS011;17254;50.976;7.034;2023-04-25T00:29:48;14.23;;;8.47;;
30458;SDS011;17254;50.976;7.034;2023-04-25T00:29:54;14.88;;;8.63;;
30458;SDS011;17254;50.976;7.034;2023-04-25T00:30:00;14.37;;;8.70;;
30458;SDS011;17254;50.976;7.034;2023-04-25T00:30:06;13.82;;;8.50;;
30458;SDS011;17254;50.976;7.034;2023-04-25T00:30:13;13.30;;;8.43;;
30458;SDS011;17254;50.976;7.034;2023-04-25T00:30:19;13.72;;;8.24;;
30458;SDS011;17254;50.976;7.034;2023-04-25T00:30:25;14.55;;;8.02;;
30458;SDS011;17254;50.976;7.034;2023-04-25T00:30:31;15.30;;;8.10;;
30458;SDS011;17254;50.976;7.034;2023-04-25T00:30:37;16.20;;;8.10;;
30458;SDS011;17254;50.976;7.034;2023-04-25T00:30:43;15.83;;;7.93;;
30458;SDS011;17254;50.976;7.034;2023-04-25T00:30:49;16.05;;;8.02;;
30458;SDS011;17254;50.976;7.034;2023-04-25T00:30:55;15.40;;;7.96;;
30458;SDS011;17254;50.976;7.034;2023-04-25T00:31:01;15.17;;;7.93;;
30458;SDS011;17254;50.976;7.034;2023-04-25T00:31:08;14.93;;;7.85;;
30458;SDS011;17254;50.976;7.034;2023-04-25T00:31:14;15.10;;;8.07;;
30458;SDS011;17254;50.976;7.034;2023-04-25T00:31:20;15.85;;;8.27;;
30458;SDS011;17254;50.976;7.034;2023-04-25T00:31:26;15.68;;;8.35;;
30458;SDS011;17254;50.976;7.034;2023-04-25T00:31:34;15.65;;;8.50;;
30458;SDS011;17254;50.976;7.034;2023-04-25T00:31:39;16.40;;;8.80;;
30458;SDS011;17254;50.976;7.034;2023-04-25T00:31:45;16.42;;;8.82;;
30458;SDS011;17254;50.976;7.034;2023-04-25T00:31:51;17.35;;;8.88;;
30458;SDS011;17254;50.976;7.034;2023-04-25T00:31:57;16.90;;;8.63;;
30458;SDS011;17254;50.976;7.034;2023-04-25T00:32:03;16.85;;;8.40;;
30458;SDS011;17254;50.976;7.034;2023-04-25T00:32:09;15.25;;;8.00;;
30458;SDS011;17254;50.976;7.034;2023-04-25T00:32:15;15.93;;;7.78;;
30458;SDS011;17254;50.976;7.034;2023-04-25T00:32:21;14.60;;;7.60;;
30458;SDS011;17254;50.976;7.034;2023-04-25T00:32:27;14.73;;;7.90;;
30458;SDS011;17254;50.976;7.034;2023-04-25T00:32:33;14.57;;;8.20;;
30458;SDS011;17254;50.976;7.034;2023-04-25T00:32:39;15.25;;;8.40;;
30458;SDS011;17254;50.976;7.034;2023-04-25T00:32:46;14.57;;;8.50;;
30458;SDS011;17254;50.976;7.034;2023-04-25T00:32:52;14.10;;;8.33;;
30458;SDS011;17254;50.976;7.034;2023-04-25T00:32:58;13.80;;;8.13;;
30458;SDS011;17254;50.976;7.034;2023-04-25T00:33:04;13.90;;;8.18;;
30458;SDS011;17254;50.976;7.034;2023-04-25T00:33:10;13.60;;;8.40;;
30458;SDS011;17254;50.976;7.034;2023-04-25T00:33:16;13.70;;;8.50;;
30458;SDS011;17254;50.976;7.034;2023-04-25T00:33:22;13.90;;;8.65;;
30458;SDS011;17254;50.976;7.034;2023-04-25T00:33:28;14.15;;;8.80;;
30458;SDS011;17254;50.976;7.034;2023-04-25T00:33:34;15.77;;;8.77;;
30458;SDS011;17254;50.976;7.034;2023-04-25T00:33:41;14.50;;;8.15;;
30458;SDS011;17254;50.976;7.034;2023-04-25T00:33:47;14.68;;;8.00;;
30458;SDS011;17254;50.976;7.034;2023-04-25T00:33:53;15.38;;;8.20;;
30458;SDS011;17254;50.976;7.034;2023-04-25T00:33:59;15.90;;;8.20;;
30458;SDS011;17254;50.976;7.034;2023-04-25T00:34:05;14.82;;;8.15;;
30458;SDS011;17254;50.976;7.034;2023-04-25T00:34:11;15.90;;;8.60;;
30458;SDS011;17254;50.976;7.034;2023-04-25T00:34:18;16.68;;;8.60;;
30458;SDS011;17254;50.976;7.034;2023-04-25T00:34:24;16.67;;;8.57;;
30458;SDS011;17254;50.976;7.034;2023-04-25T00:34:30;16.63;;;8.52;;
30458;SDS011;17254;50.976;7.034;2023-04-25T00:34:36;16.45;;;8.52;;
30458;SDS011;17254;50.976;7.034;2023-04-25T00:34:42;15.70;;;8.45;;
30458;SDS011;17254;50.976;7.034;2023-04-25T00:34:48;13.57;;;8.32;;
30458;SDS011;17254;50.976;7.034;2023-04-25T00:34:54;13.20;;;8.35;;
30458;SDS011;17254;50.976;7.034;2023-04-25T00:35:01;13.40;;;8.50;;
30458;SDS011;17254;50.976;7.034;2023-04-25T00:35:07;15.02;;;8.54;;
30458;SDS011;17254;50.976;7.034;2023-04-25T00:35:13;15.70;;;8.50;;
30458;SDS011;17254;50.976;7.034;2023-04-25T00:35:19;15.85;;;8.52;;
30458;SDS011;17254;50.976;7.034;2023-04-25T00:35:26;16.03;;;8.20;;
30458;SDS011;17254;50.976;7.034;2023-04-25T00:35:33;15.95;;;8.30;;
30458;SDS011;17254;50.976;7.034;2023-04-25T00:35:39;15.32;;;8.30;;
30458;SDS011;17254;50.976;7.034;2023-04-25T00:35:46;15.84;;;8.36;;
30458;SDS011;17254;50.976;7.034;2023-04-25T00:35:52;16.10;;;8.35;;
30458;SDS011;17254;50.976;7.034;2023-04-25T00:35:58;17.10;;;8.60;;
30458;SDS011;17254;50.976;7.034;2023-04-25T00:36:04;16.23;;;8.65;;
30458;SDS011;17254;50.976;7.034;2023-04-25T00:36:11;15.66;;;8.70;;
30458;SDS011;17254;50.976;7.034;2023-04-25T00:36:17;15.90;;;9.10;;
30458;SDS011;17254;50.976;7.034;2023-04-25T00:36:23;16.78;;;9.26;;
30458;SDS011;17254;50.976;7.034;2023-04-25T00:36:30;17.10;;;9.17;;
30458;SDS011;17254;50.976;7.034;2023-04-25T00:36:36;16.75;;;8.95;;
30458;SDS011;17254;50.976;7.034;2023-04-25T00:36:43;17.74;;;9.00;;
30458;SDS011;17254;50.976;7.034;2023-04-25T00:36:49;16.40;;;8.90;;
30458;SDS011;17254;50.976;7.034;2023-04-25T00:36:55;14.68;;;8.60;;
30458;SDS011;17254;50.976;7.034;2023-04-25T00:37:02;15.37;;;8.40;;
30458;SDS011;17254;50.976;7.034;2023-04-25T00:37:08;14.76;;;8.16;;
30458;SDS011;17254;50.976;7.034;2023-04-25T00:37:15;14.16;;;8.14;;
30458;SDS011;17254;50.976;7.034;2023-04-25T00:37:21;14.77;;;8.20;;
30458;SDS011;17254;50.976;7.034;2023-04-25T00:37:27;14.50;;;8.17;;
30458;SDS011;17254;50.976;7.034;2023-04-25T00:37:33;14.13;;;8.13;;
30458;SDS011;17254;50.976;7.034;2023-04-25T00:37:39;15.43;;;8.32;;
30458;SDS011;17254;50.976;7.034;2023-04-25T00:37:45;15.55;;;8.02;;
30458;SDS011;17254;50.976;7.034;2023-04-25T00:37:51;16.60;;;8.18;;